Time;durP1;ratioP1;P1;durP2;ratioP2;P2;SDS_P1;SDS_P2;PMS_P1;PMS_P2;Temp;Humidity;BMP_temperature;BMP_pressure;BME280_temperature;BME280_humidity;BME280_pressure;Samples;Min_cycle;Max_cycle;Signal;HPM_P1;HPM_P2
2021/11/21 00:00:10;;;;;;;40.38;22.83;;;9.30;99.90;;;;;;5108123;28;20031;-48
2021/11/21 00:02:36;;;;;;;41.75;22.50;;;9.30;99.90;;;;;;5108561;28;20027;-48
2021/11/21 00:05:03;;;;;;;39.60;22.55;;;9.30;99.90;;;;;;5108572;28;20507;-50
2021/11/21 00:07:28;;;;;;;41.78;23.02;;;9.30;99.90;;;;;;5107028;28;20481;-47
2021/11/21 00:09:54;;;;;;;42.13;23.33;;;9.20;99.90;;;;;;5107785;28;20035;-47
2021/11/21 00:12:20;;;;;;;37.90;23.73;;;9.30;99.90;;;;;;5102381;28;20020;-47
2021/11/21 00:14:45;;;;;;;40.08;22.20;;;9.30;99.90;;;;;;5106761;28;20016;-49
2021/11/21 00:17:11;;;;;;;38.20;21.85;;;9.30;99.90;;;;;;5112119;28;20028;-49
2021/11/21 00:19:41;;;;;;;40.38;23.83;;;9.30;99.90;;;;;;5111271;28;20024;-47
2021/11/21 00:22:11;;;;;;;36.97;22.67;;;9.20;99.90;;;;;;5111883;28;20034;-47
2021/11/21 00:24:38;;;;;;;41.17;22.88;;;9.30;99.90;;;;;;5112289;28;20051;-47
2021/11/21 00:27:05;;;;;;;39.03;23.58;;;9.20;99.90;;;;;;5111840;28;20186;-47
2021/11/21 00:29:30;;;;;;;41.40;22.52;;;9.20;99.90;;;;;;5109972;28;20370;-46
2021/11/21 00:31:56;;;;;;;41.03;22.17;;;9.30;99.90;;;;;;5111824;28;20030;-49
2021/11/21 00:34:22;;;;;;;43.33;24.05;;;9.30;99.90;;;;;;5111578;28;20020;-46
2021/11/21 00:36:47;;;;;;;41.55;24.23;;;9.20;99.90;;;;;;5111615;28;20055;-46
2021/11/21 00:39:13;;;;;;;38.45;22.83;;;9.20;99.90;;;;;;5110734;28;20019;-47
2021/11/21 00:41:39;;;;;;;40.65;22.77;;;9.20;99.90;;;;;;5107798;28;20201;-48
2021/11/21 00:44:06;;;;;;;45.55;24.02;;;9.20;99.90;;;;;;5103066;28;20028;-48
2021/11/21 00:46:31;;;;;;;40.75;22.48;;;9.20;99.90;;;;;;5111799;28;20430;-46
2021/11/21 00:48:57;;;;;;;45.70;24.70;;;9.20;99.90;;;;;;5110937;28;20038;-48
2021/11/21 00:51:23;;;;;;;46.15;25.60;;;9.20;99.90;;;;;;5111790;28;20455;-48
2021/11/21 00:53:53;;;;;;;44.53;24.90;;;9.20;99.90;;;;;;5111530;28;20026;-47
2021/11/21 00:56:19;;;;;;;41.17;24.05;;;9.20;99.90;;;;;;5111092;28;20271;-47
2021/11/21 00:58:45;;;;;;;46.33;25.85;;;9.20;99.90;;;;;;5110817;28;20430;-47
2021/11/21 01:01:10;;;;;;;43.72;24.02;;;9.10;99.90;;;;;;5111234;28;20024;-47
2021/11/21 01:03:36;;;;;;;46.97;27.20;;;9.10;99.90;;;;;;5111229;28;20042;-47
2021/11/21 01:06:03;;;;;;;46.97;25.55;;;9.10;99.90;;;;;;5110979;28;20393;-47
2021/11/21 01:08:29;;;;;;;46.05;25.75;;;9.20;99.90;;;;;;5109000;28;20438;-47
2021/11/21 01:10:59;;;;;;;49.53;25.77;;;9.20;99.90;;;;;;5107904;28;20020;-48
2021/11/21 01:13:25;;;;;;;47.53;25.65;;;9.20;99.90;;;;;;5091103;28;20382;-50
2021/11/21 01:15:51;;;;;;;48.45;26.90;;;9.20;99.90;;;;;;5090610;28;20032;-46
2021/11/21 01:18:18;;;;;;;48.97;27.33;;;9.20;99.90;;;;;;5090111;28;20315;-47
2021/11/21 01:20:45;;;;;;;47.05;27.00;;;9.10;99.90;;;;;;5088944;28;20070;-49
2021/11/21 01:23:12;;;;;;;48.25;26.40;;;9.20;99.90;;;;;;5088815;28;20027;-47
2021/11/21 01:25:40;;;;;;;48.50;26.77;;;9.10;99.90;;;;;;5090804;28;20036;-48
2021/11/21 01:28:06;;;;;;;47.00;27.10;;;9.10;99.90;;;;;;5090174;28;20026;-50
2021/11/21 01:30:32;;;;;;;43.92;24.92;;;9.20;99.90;;;;;;5089909;28;20045;-48
2021/11/21 01:32:59;;;;;;;48.60;25.95;;;9.20;99.90;;;;;;5090115;28;20073;-49
2021/11/21 01:35:26;;;;;;;47.20;26.15;;;9.20;99.90;;;;;;5089939;28;20481;-48
2021/11/21 01:37:51;;;;;;;47.63;27.17;;;9.20;99.90;;;;;;5089942;28;20020;-47
2021/11/21 01:40:20;;;;;;;46.92;26.10;;;9.10;99.90;;;;;;5089068;28;20100;-48
2021/11/21 01:42:47;;;;;;;46.72;25.92;;;9.10;99.90;;;;;;5095355;28;20035;-47
2021/11/21 01:45:13;;;;;;;46.13;26.33;;;9.10;99.90;;;;;;5108747;28;20435;-49
2021/11/21 01:47:41;;;;;;;47.25;24.73;;;9.10;99.90;;;;;;5110089;28;20047;-48
2021/11/21 01:50:17;;;;;;;41.05;24.60;;;9.10;99.90;;;;;;5108118;28;20255;-48
2021/11/21 01:52:43;;;;;;;48.72;25.85;;;9.00;99.90;;;;;;5110100;28;20441;-50
2021/11/21 01:55:09;;;;;;;48.67;24.88;;;9.10;99.90;;;;;;5110029;28;20062;-48
2021/11/21 01:57:37;;;;;;;47.97;26.30;;;9.00;99.90;;;;;;5109913;28;20024;-50
2021/11/21 02:00:06;;;;;;;44.85;25.05;;;9.10;99.90;;;;;;5109127;28;20517;-47
2021/11/21 02:02:32;;;;;;;45.90;25.30;;;9.10;99.90;;;;;;5109951;28;20031;-47
2021/11/21 02:04:58;;;;;;;44.55;23.42;;;9.00;99.90;;;;;;5108366;28;20484;-50
2021/11/21 02:07:27;;;;;;;43.33;23.38;;;9.00;99.90;;;;;;5109545;28;20073;-47
2021/11/21 02:09:53;;;;;;;39.00;22.80;;;9.00;99.90;;;;;;5109304;28;20030;-46
2021/11/21 02:12:19;;;;;;;41.55;23.33;;;9.10;99.90;;;;;;5099849;28;20549;-46
2021/11/21 02:14:45;;;;;;;41.88;22.92;;;9.10;99.90;;;;;;5103144;28;20496;-49
2021/11/21 02:17:11;;;;;;;41.92;22.80;;;9.10;99.90;;;;;;5109652;28;20036;-46
2021/11/21 02:19:36;;;;;;;40.50;21.90;;;9.10;99.90;;;;;;5108944;28;20035;-49
2021/11/21 02:22:03;;;;;;;43.13;23.45;;;9.10;99.90;;;;;;5109785;28;20381;-47
2021/11/21 02:24:28;;;;;;;44.92;24.52;;;9.10;99.90;;;;;;5109626;28;20030;-48
2021/11/21 02:26:54;;;;;;;47.80;24.65;;;9.00;99.90;;;;;;5109180;28;20027;-49
2021/11/21 02:29:20;;;;;;;40.00;21.80;;;9.00;99.90;;;;;;5109289;28;20027;-49
2021/11/21 02:31:46;;;;;;;41.10;23.08;;;9.10;99.90;;;;;;5109461;28;20027;-48
2021/11/21 02:34:12;;;;;;;39.40;22.23;;;9.10;99.90;;;;;;5108844;28;20020;-48
2021/11/21 02:36:43;;;;;;;44.42;23.85;;;9.10;99.90;;;;;;5109398;28;20028;-46
2021/11/21 02:39:10;;;;;;;40.53;22.65;;;9.00;99.90;;;;;;5108547;28;20030;-47
2021/11/21 02:41:36;;;;;;;40.50;22.33;;;9.00;99.90;;;;;;5107434;28;20038;-47
2021/11/21 02:44:01;;;;;;;44.40;23.55;;;9.00;99.90;;;;;;5100784;28;20028;-47
2021/11/21 02:46:30;;;;;;;40.28;23.02;;;9.00;99.90;;;;;;5109615;28;20024;-50
2021/11/21 02:48:56;;;;;;;44.50;23.52;;;9.00;99.90;;;;;;5108603;28;20023;-47
2021/11/21 02:51:22;;;;;;;41.13;23.73;;;9.00;99.90;;;;;;5109174;28;20043;-48
2021/11/21 02:53:48;;;;;;;39.20;22.05;;;9.00;99.90;;;;;;5109315;28;20115;-47
2021/11/21 02:56:16;;;;;;;42.92;24.83;;;8.90;99.90;;;;;;5108965;28;20030;-47
2021/11/21 02:58:42;;;;;;;43.28;24.75;;;8.90;99.90;;;;;;5108411;28;20016;-47
2021/11/21 03:01:19;;;;;;;42.78;24.75;;;8.90;99.90;;;;;;5108675;28;20106;-49
2021/11/21 03:03:46;;;;;;;43.45;23.88;;;8.80;99.90;;;;;;5092029;28;20024;-47
2021/11/21 03:06:12;;;;;;;43.70;23.27;;;8.80;99.90;;;;;;5107410;28;20114;-48
2021/11/21 03:08:38;;;;;;;44.85;23.98;;;8.90;99.90;;;;;;5107158;28;20081;-48
2021/11/21 03:11:25;;;;;;;46.63;25.08;;;9.00;99.90;;;;;;5107775;28;20492;-47
2021/11/21 03:13:51;;;;;;;49.95;25.40;;;9.00;99.90;;;;;;5099509;28;20068;-47
2021/11/21 03:16:16;;;;;;;47.13;25.83;;;8.90;99.90;;;;;;5109218;28;20027;-47
2021/11/21 03:18:42;;;;;;;43.90;24.90;;;8.90;99.90;;;;;;5108338;28;20032;-50
2021/11/21 03:21:08;;;;;;;51.38;26.00;;;8.90;99.90;;;;;;5108904;28;20652;-50
2021/11/21 03:23:34;;;;;;;47.13;26.38;;;8.90;99.90;;;;;;5107070;28;20293;-48
2021/11/21 03:26:00;;;;;;;46.88;25.42;;;8.90;99.90;;;;;;5087740;28;20024;-50
2021/11/21 03:28:25;;;;;;;45.47;24.92;;;8.90;99.90;;;;;;5087377;28;20470;-47
2021/11/21 03:30:51;;;;;;;53.22;27.77;;;8.90;99.90;;;;;;5087878;28;20035;-46
2021/11/21 03:33:18;;;;;;;49.03;27.05;;;8.80;99.90;;;;;;5086473;28;20024;-47
2021/11/21 03:35:43;;;;;;;47.35;26.52;;;8.80;99.90;;;;;;5088019;28;20028;-50
2021/11/21 03:38:09;;;;;;;54.40;28.85;;;8.80;99.90;;;;;;5088065;28;20036;-48
2021/11/21 03:40:35;;;;;;;52.65;26.45;;;8.70;99.90;;;;;;5087515;28;20024;-46
2021/11/21 03:43:02;;;;;;;46.45;25.17;;;8.70;99.90;;;;;;5096270;28;20051;-49
2021/11/21 03:45:28;;;;;;;44.25;25.35;;;8.80;99.90;;;;;;5109761;28;20107;-49
2021/11/21 03:47:55;;;;;;;50.35;25.63;;;8.70;99.90;;;;;;5112479;28;20600;-48
2021/11/21 03:50:20;;;;;;;49.28;25.98;;;8.70;99.90;;;;;;5107446;28;20040;-46
2021/11/21 03:52:47;;;;;;;50.45;26.15;;;8.80;99.90;;;;;;5090638;28;20500;-48
2021/11/21 03:55:15;;;;;;;51.08;27.60;;;8.70;99.90;;;;;;5091954;28;20040;-48
2021/11/21 03:57:41;;;;;;;48.25;26.88;;;8.70;99.90;;;;;;5091889;28;20032;-48
2021/11/21 04:00:11;;;;;;;54.58;26.63;;;8.70;99.90;;;;;;5091137;28;20054;-49
2021/11/21 04:02:37;;;;;;;50.25;26.92;;;8.70;99.90;;;;;;5091542;28;20043;-49
2021/11/21 04:05:03;;;;;;;53.97;27.88;;;8.70;99.90;;;;;;5091612;28;20028;-49
2021/11/21 04:07:31;;;;;;;50.42;27.70;;;8.70;99.90;;;;;;5091084;28;20028;-47
2021/11/21 04:09:57;;;;;;;53.10;27.23;;;8.60;99.90;;;;;;5091199;28;20028;-47
2021/11/21 04:12:23;;;;;;;50.88;27.13;;;8.60;99.90;;;;;;5091932;28;20404;-47
2021/11/21 04:14:48;;;;;;;53.70;26.40;;;8.50;99.90;;;;;;5090858;28;20504;-49
2021/11/21 04:17:14;;;;;;;53.15;27.40;;;8.50;99.90;;;;;;5090744;28;20031;-50
2021/11/21 04:19:40;;;;;;;52.95;26.92;;;8.50;99.90;;;;;;5093542;28;20389;-48
2021/11/21 04:22:05;;;;;;;57.05;27.25;;;8.50;99.90;;;;;;5109406;28;20020;-47
2021/11/21 04:24:31;;;;;;;53.50;28.25;;;8.60;99.90;;;;;;5111793;28;20031;-49
2021/11/21 04:26:57;;;;;;;54.63;28.95;;;8.50;99.90;;;;;;5111835;28;20026;-49
2021/11/21 04:29:22;;;;;;;54.28;27.83;;;8.50;99.90;;;;;;5109724;28;20028;-50
2021/11/21 04:31:50;;;;;;;51.22;27.17;;;8.60;99.90;;;;;;5111691;28;20055;-48
2021/11/21 04:34:16;;;;;;;50.55;26.35;;;8.60;99.90;;;;;;5111486;28;20038;-50
2021/11/21 04:36:42;;;;;;;50.83;26.88;;;8.60;99.90;;;;;;5111660;28;20481;-49
2021/11/21 04:39:07;;;;;;;52.38;26.45;;;8.50;99.90;;;;;;5110952;28;20020;-47
2021/11/21 04:41:33;;;;;;;56.05;29.45;;;8.60;99.90;;;;;;5111493;28;20031;-49
2021/11/21 04:43:59;;;;;;;56.38;27.75;;;8.60;99.90;;;;;;5111635;28;20028;-48
2021/11/21 04:46:25;;;;;;;53.78;27.40;;;8.50;99.90;;;;;;5111763;28;20423;-47
2021/11/21 04:48:51;;;;;;;56.53;29.45;;;8.50;99.90;;;;;;5105527;28;20047;-47
2021/11/21 04:51:16;;;;;;;57.97;30.05;;;8.50;99.90;;;;;;5102979;28;20051;-47
2021/11/21 04:53:42;;;;;;;62.97;30.52;;;8.40;99.90;;;;;;5111429;28;20024;-50
2021/11/21 04:56:09;;;;;;;59.22;30.15;;;8.40;99.90;;;;;;5111194;28;20474;-47
2021/11/21 04:58:35;;;;;;;58.60;28.92;;;8.30;99.90;;;;;;5110602;28;20051;-47
2021/11/21 05:01:00;;;;;;;61.53;30.40;;;8.30;99.90;;;;;;5111182;28;20059;-46
2021/11/21 05:03:26;;;;;;;60.63;31.88;;;8.30;99.90;;;;;;5110841;28;20036;-46
2021/11/21 05:05:52;;;;;;;59.17;28.55;;;8.30;99.90;;;;;;5109560;28;20123;-47
2021/11/21 05:08:17;;;;;;;55.17;27.58;;;8.30;99.90;;;;;;5110593;28;20062;-48
2021/11/21 05:10:43;;;;;;;57.38;28.88;;;8.30;99.90;;;;;;5110843;28;20020;-47
2021/11/21 05:13:09;;;;;;;56.67;29.20;;;8.30;99.90;;;;;;5110937;27;20023;-46
2021/11/21 05:15:34;;;;;;;57.58;28.17;;;8.30;99.90;;;;;;5110912;28;20561;-46
2021/11/21 05:18:00;;;;;;;60.40;29.05;;;8.30;99.90;;;;;;5105317;28;20020;-49
2021/11/21 05:20:27;;;;;;;54.20;27.35;;;8.30;99.90;;;;;;5101470;28;20542;-46
2021/11/21 05:22:52;;;;;;;51.95;28.00;;;8.30;99.90;;;;;;5110693;28;20103;-46
2021/11/21 05:25:18;;;;;;;57.33;27.83;;;8.30;99.90;;;;;;5110646;28;20533;-46
2021/11/21 05:27:47;;;;;;;52.85;26.30;;;8.30;99.90;;;;;;5110726;28;20046;-46
2021/11/21 05:30:14;;;;;;;55.53;29.65;;;8.30;99.90;;;;;;5110027;27;20015;-46
2021/11/21 05:32:40;;;;;;;59.00;28.23;;;8.30;99.90;;;;;;5110422;28;20548;-46
2021/11/21 05:35:07;;;;;;;50.00;26.67;;;8.30;99.90;;;;;;5110490;28;20448;-47
2021/11/21 05:37:35;;;;;;;56.30;28.52;;;8.30;99.90;;;;;;5110667;28;20051;-47
2021/11/21 05:40:05;;;;;;;57.13;26.67;;;8.30;99.90;;;;;;5109584;28;20027;-47
2021/11/21 05:42:31;;;;;;;50.95;26.85;;;8.40;99.90;;;;;;5110338;28;20027;-47
2021/11/21 05:44:57;;;;;;;48.17;24.05;;;8.50;99.90;;;;;;5110265;28;20104;-46
2021/11/21 05:47:23;;;;;;;51.65;26.73;;;8.50;99.90;;;;;;5109804;28;20024;-46
2021/11/21 05:49:48;;;;;;;46.55;25.02;;;8.40;99.90;;;;;;5095960;28;20446;-47
2021/11/21 05:52:15;;;;;;;49.85;25.70;;;8.50;99.90;;;;;;5090715;28;20143;-46
2021/11/21 05:54:42;;;;;;;53.47;26.00;;;8.40;99.90;;;;;;5089618;28;20028;-48
2021/11/21 05:57:09;;;;;;;49.38;26.55;;;8.40;99.90;;;;;;5089739;28;20043;-48
2021/11/21 05:59:38;;;;;;;47.42;25.13;;;8.40;99.90;;;;;;5089076;28;20153;-46
2021/11/21 06:02:04;;;;;;;48.42;27.00;;;8.40;99.90;;;;;;5089358;28;20498;-47
2021/11/21 06:04:30;;;;;;;44.15;23.90;;;8.40;99.90;;;;;;5089375;28;20024;-46
2021/11/21 06:06:56;;;;;;;51.75;25.60;;;8.40;99.90;;;;;;5089543;28;20024;-47
2021/11/21 06:09:21;;;;;;;47.58;25.33;;;8.40;99.90;;;;;;5087894;28;20024;-46
2021/11/21 06:11:48;;;;;;;42.28;24.08;;;8.40;99.90;;;;;;5083582;28;20025;-47
2021/11/21 06:14:14;;;;;;;47.47;24.83;;;8.40;99.90;;;;;;5098858;28;20016;-48
2021/11/21 06:16:39;;;;;;;46.72;24.38;;;8.40;99.90;;;;;;5109526;28;20035;-49
2021/11/21 06:19:05;;;;;;;44.75;24.80;;;8.40;99.90;;;;;;5107489;28;20106;-46
2021/11/21 06:21:31;;;;;;;46.13;24.38;;;8.40;99.90;;;;;;5108565;28;20036;-46
2021/11/21 06:23:57;;;;;;;41.35;24.27;;;8.40;99.90;;;;;;5089084;28;20024;-47
2021/11/21 06:26:24;;;;;;;39.25;22.17;;;8.50;99.90;;;;;;5088006;28;20114;-47
2021/11/21 06:28:51;;;;;;;40.42;21.95;;;8.50;99.90;;;;;;5092365;28;20031;-46
2021/11/21 06:31:17;;;;;;;38.65;21.48;;;8.50;99.90;;;;;;5088561;28;20034;-46
2021/11/21 06:33:43;;;;;;;38.78;22.38;;;8.60;99.90;;;;;;5091004;28;20246;-46
2021/11/21 06:36:09;;;;;;;40.40;21.95;;;8.60;99.90;;;;;;5088557;28;20032;-47
2021/11/21 06:38:35;;;;;;;40.75;23.08;;;8.60;99.90;;;;;;5087863;28;20450;-48
2021/11/21 06:41:01;;;;;;;44.85;21.90;;;8.60;99.90;;;;;;5087237;28;20145;-47
2021/11/21 06:43:26;;;;;;;43.78;22.77;;;8.50;99.90;;;;;;5089285;28;20024;-46
2021/11/21 06:45:52;;;;;;;42.50;21.45;;;8.50;99.90;;;;;;5089155;28;20092;-48
2021/11/21 06:48:21;;;;;;;38.47;21.50;;;8.50;99.90;;;;;;5088551;28;20020;-46
2021/11/21 06:50:51;;;;;;;42.15;24.05;;;8.50;99.90;;;;;;5088263;28;20019;-47
2021/11/21 06:53:17;;;;;;;41.75;24.05;;;8.50;99.90;;;;;;5088075;28;20074;-47
2021/11/21 06:55:42;;;;;;;44.30;23.50;;;8.50;99.90;;;;;;5088207;28;20032;-47
2021/11/21 06:58:08;;;;;;;41.45;22.23;;;8.40;99.90;;;;;;5086574;28;20085;-50
2021/11/21 07:00:35;;;;;;;43.72;22.92;;;8.30;99.90;;;;;;5088509;28;20047;-47
2021/11/21 07:03:00;;;;;;;40.10;21.58;;;8.30;99.90;;;;;;5107569;28;20498;-47
2021/11/21 07:05:26;;;;;;;42.28;24.00;;;8.20;99.90;;;;;;5108049;28;20115;-47
2021/11/21 07:07:52;;;;;;;52.47;26.38;;;8.20;99.90;;;;;;5109332;28;20098;-48
2021/11/21 07:10:17;;;;;;;51.47;25.67;;;8.20;99.90;;;;;;5107285;28;20028;-48
2021/11/21 07:12:44;;;;;;;54.00;26.45;;;8.20;99.90;;;;;;5095778;28;20016;-47
2021/11/21 07:15:12;;;;;;;43.58;22.95;;;8.20;99.90;;;;;;5097206;28;20104;-47
2021/11/21 07:17:38;;;;;;;47.45;23.83;;;8.20;99.90;;;;;;5087344;28;20028;-48
2021/11/21 07:20:05;;;;;;;51.55;25.15;;;8.20;99.90;;;;;;5087225;28;20070;-47
2021/11/21 07:22:32;;;;;;;49.60;26.00;;;8.20;99.90;;;;;;5091623;28;20072;-47
2021/11/21 07:24:58;;;;;;;43.47;24.20;;;8.20;99.90;;;;;;5092132;28;20358;-47
2021/11/21 07:27:23;;;;;;;47.13;23.52;;;8.10;99.90;;;;;;5092171;28;20031;-48
2021/11/21 07:29:49;;;;;;;45.38;23.63;;;8.10;99.90;;;;;;5091684;28;20028;-47
2021/11/21 07:32:15;;;;;;;44.40;22.98;;;8.10;99.90;;;;;;5092735;28;20023;-51
2021/11/21 07:34:41;;;;;;;49.70;24.67;;;8.10;99.90;;;;;;5092706;28;20059;-47
2021/11/21 07:37:06;;;;;;;47.63;24.40;;;8.20;99.90;;;;;;5092264;28;20028;-47
2021/11/21 07:39:32;;;;;;;50.75;23.40;;;8.20;99.90;;;;;;5090136;28;20169;-48
2021/11/21 07:41:58;;;;;;;44.78;22.95;;;8.20;99.90;;;;;;5086846;28;20113;-48
2021/11/21 07:44:23;;;;;;;50.67;25.00;;;8.20;99.90;;;;;;5103894;28;20024;-50
2021/11/21 07:46:49;;;;;;;45.60;22.58;;;8.20;99.90;;;;;;5111960;28;20023;-51
2021/11/21 07:49:15;;;;;;;46.53;25.45;;;8.20;99.90;;;;;;5111676;28;20346;-49
2021/11/21 07:51:40;;;;;;;47.00;24.13;;;8.20;99.90;;;;;;5112350;28;20400;-48
2021/11/21 07:54:06;;;;;;;45.13;22.95;;;8.20;99.90;;;;;;5112275;28;20337;-48
2021/11/21 07:56:32;;;;;;;45.90;23.05;;;8.20;99.90;;;;;;5112316;28;20453;-47
2021/11/21 07:58:57;;;;;;;45.58;24.20;;;8.20;99.90;;;;;;5111657;28;20020;-48
2021/11/21 08:01:23;;;;;;;47.17;24.02;;;8.20;99.90;;;;;;5112137;28;20020;-47
2021/11/21 08:03:48;;;;;;;44.33;22.90;;;8.20;99.90;;;;;;5112103;28;20401;-48
2021/11/21 08:06:14;;;;;;;44.35;23.67;;;8.20;99.90;;;;;;5112146;28;20036;-49
2021/11/21 08:08:40;;;;;;;43.00;21.55;;;8.20;99.90;;;;;;5111470;28;20114;-48
2021/11/21 08:11:05;;;;;;;51.70;23.10;;;8.20;99.90;;;;;;5112145;28;20528;-47
2021/11/21 08:13:32;;;;;;;48.83;23.55;;;8.30;99.90;;;;;;5100175;28;20107;-48
2021/11/21 08:15:58;;;;;;;43.85;22.38;;;8.20;99.90;;;;;;5108690;28;20667;-48
2021/11/21 08:18:24;;;;;;;43.80;24.08;;;8.30;99.90;;;;;;5111801;28;20024;-50
2021/11/21 08:20:52;;;;;;;43.30;22.60;;;8.30;99.90;;;;;;5111964;28;20022;-48
2021/11/21 08:23:18;;;;;;;38.75;20.92;;;8.30;99.90;;;;;;5112201;28;20425;-48
2021/11/21 08:25:44;;;;;;;38.72;22.23;;;8.30;99.90;;;;;;5112126;28;20103;-48
2021/11/21 08:28:10;;;;;;;40.60;22.52;;;8.30;99.90;;;;;;5111853;28;20027;-49
2021/11/21 08:30:38;;;;;;;42.70;22.85;;;8.30;99.90;;;;;;5111588;28;20045;-50
2021/11/21 08:33:09;;;;;;;38.60;22.30;;;8.40;99.90;;;;;;5110911;28;20016;-48
2021/11/21 08:35:36;;;;;;;39.50;20.75;;;8.40;99.90;;;;;;5110513;28;20020;-48
2021/11/21 08:38:02;;;;;;;42.45;22.85;;;8.40;99.90;;;;;;5111881;28;20023;-48
2021/11/21 08:40:29;;;;;;;42.33;22.98;;;8.40;99.90;;;;;;5111186;27;20168;-50
2021/11/21 08:42:59;;;;;;;44.92;24.42;;;8.40;99.90;;;;;;5104758;28;20016;-49
2021/11/21 08:45:27;;;;;;;;;;;8.40;99.90;;;;;;5071600;28;20394;-47
2021/11/21 08:47:53;;;;;;;39.00;21.15;;;8.40;99.90;;;;;;5070812;28;19908;-48
2021/11/21 08:50:20;;;;;;;43.08;24.55;;;8.40;99.90;;;;;;5070148;28;20024;-47
2021/11/21 08:52:46;;;;;;;41.58;22.90;;;8.40;99.90;;;;;;5070816;28;20036;-51
2021/11/21 08:55:12;;;;;;;42.60;23.65;;;8.40;99.90;;;;;;5070661;28;20247;-50
2021/11/21 08:57:38;;;;;;;41.88;21.83;;;8.40;99.90;;;;;;5070418;28;20501;-48
2021/11/21 09:00:06;;;;;;;46.25;23.80;;;8.40;99.90;;;;;;5069853;28;20035;-47
2021/11/21 09:02:34;;;;;;;42.05;23.20;;;8.50;99.90;;;;;;5070445;28;20034;-49
2021/11/21 09:05:03;;;;;;;39.70;22.38;;;8.60;99.90;;;;;;5070754;28;20240;-48
2021/11/21 09:07:29;;;;;;;44.47;23.15;;;8.60;99.90;;;;;;5070240;28;20532;-47
2021/11/21 09:09:55;;;;;;;42.85;24.45;;;8.60;99.90;;;;;;5069625;28;20029;-48
2021/11/21 09:12:20;;;;;;;42.47;23.60;;;8.70;99.90;;;;;;5077136;28;20020;-47
2021/11/21 09:14:46;;;;;;;45.15;22.67;;;8.70;99.90;;;;;;5102624;28;20061;-47
2021/11/21 09:17:11;;;;;;;39.97;21.90;;;8.80;99.90;;;;;;5111263;28;20115;-47
2021/11/21 09:19:37;;;;;;;40.92;22.27;;;8.90;99.90;;;;;;5110472;28;20030;-48
2021/11/21 09:22:03;;;;;;;38.78;21.80;;;8.90;99.90;;;;;;5110916;28;20397;-50
2021/11/21 09:24:28;;;;;;;37.83;22.17;;;9.00;99.90;;;;;;5110679;28;20101;-50
2021/11/21 09:26:54;;;;;;;39.80;23.20;;;9.00;99.90;;;;;;5110603;28;20036;-49
2021/11/21 09:29:20;;;;;;;39.80;21.92;;;9.10;99.90;;;;;;5109769;28;20081;-47
2021/11/21 09:31:45;;;;;;;37.63;21.88;;;9.10;99.90;;;;;;5110533;28;20473;-48
2021/11/21 09:34:13;;;;;;;41.15;21.50;;;9.10;99.90;;;;;;5110497;28;20031;-47
2021/11/21 09:36:39;;;;;;;35.50;21.73;;;9.10;99.90;;;;;;5110371;28;20023;-48
2021/11/21 09:39:04;;;;;;;35.25;19.70;;;9.10;99.90;;;;;;5109475;28;20502;-49
2021/11/21 09:41:30;;;;;;;39.67;21.70;;;9.10;99.90;;;;;;5109862;28;20031;-47
2021/11/21 09:43:56;;;;;;;37.05;20.38;;;9.10;99.90;;;;;;5097778;28;20020;-49
2021/11/21 09:46:21;;;;;;;32.40;19.02;;;9.10;99.90;;;;;;5110410;28;20521;-48
2021/11/21 09:48:47;;;;;;;34.20;18.85;;;9.10;99.90;;;;;;5109757;28;20066;-50
2021/11/21 09:51:14;;;;;;;36.63;20.60;;;9.10;99.90;;;;;;5110063;27;20124;-48
2021/11/21 09:53:42;;;;;;;36.10;20.60;;;9.10;99.90;;;;;;5110289;28;20384;-50
2021/11/21 09:56:08;;;;;;;34.75;18.90;;;9.00;99.90;;;;;;5110105;27;20035;-49
2021/11/21 09:58:34;;;;;;;34.05;19.13;;;9.00;99.90;;;;;;5109153;28;20030;-49
2021/11/21 10:01:00;;;;;;;33.53;20.17;;;9.00;99.90;;;;;;5108706;28;20458;-47
2021/11/21 10:03:26;;;;;;;33.97;20.60;;;9.10;99.90;;;;;;5109925;28;20028;-50
2021/11/21 10:05:54;;;;;;;33.75;18.88;;;9.10;99.90;;;;;;5109775;28;20027;-48
2021/11/21 10:08:19;;;;;;;32.13;19.05;;;9.10;99.90;;;;;;5109599;28;20028;-48
2021/11/21 10:11:04;;;;;;;36.00;21.48;;;9.20;99.90;;;;;;5109940;28;20026;-48
2021/11/21 10:13:34;;;;;;;32.03;19.13;;;9.30;99.90;;;;;;5100360;28;20055;-48
2021/11/21 10:16:34;;;;;;;32.28;19.23;;;9.40;99.90;;;;;;5106591;28;20020;-49
2021/11/21 10:19:02;;;;;;;33.25;18.38;;;9.50;99.90;;;;;;5107299;28;20404;-47
2021/11/21 10:21:57;;;;;;;29.10;18.60;;;9.60;99.90;;;;;;5109688;28;20554;-49
2021/11/21 10:24:31;;;;;;;25.75;16.10;;;9.80;99.90;;;;;;5109903;28;20058;-50
2021/11/21 10:27:11;;;;;;;23.98;15.18;;;9.80;99.90;;;;;;5109509;28;20023;-50
2021/11/21 10:29:38;;;;;;;29.02;15.65;;;9.80;99.90;;;;;;5108770;28;20076;-50
2021/11/21 10:32:20;;;;;;;24.45;15.50;;;9.80;99.90;;;;;;5109549;28;20019;-51
2021/11/21 10:34:49;;;;;;;24.80;14.57;;;9.90;99.90;;;;;;5107602;28;20086;-50
2021/11/21 10:37:17;;;;;;;28.83;17.17;;;9.80;99.90;;;;;;5109022;28;20242;-50
2021/11/21 10:39:47;;;;;;;25.27;16.20;;;9.70;99.90;;;;;;5107221;28;20034;-51
2021/11/21 10:42:13;;;;;;;27.20;15.63;;;9.80;99.90;;;;;;5105260;28;20062;-48
2021/11/21 10:44:52;;;;;;;25.88;15.15;;;9.80;99.90;;;;;;5100600;28;20024;-51
2021/11/21 10:47:18;;;;;;;24.95;14.43;;;9.90;99.90;;;;;;5109297;28;20076;-49
2021/11/21 10:49:44;;;;;;;21.33;13.00;;;10.00;99.90;;;;;;5107128;28;20431;-51
2021/11/21 10:52:22;;;;;;;21.38;13.63;;;10.10;99.90;;;;;;5109129;28;20030;-50
2021/11/21 10:54:57;;;;;;;24.55;13.75;;;10.10;99.90;;;;;;5108718;28;20091;-49
2021/11/21 10:57:26;;;;;;;24.75;14.13;;;10.10;99.90;;;;;;5108943;28;20489;-48
2021/11/21 10:59:59;;;;;;;21.00;12.80;;;10.10;99.90;;;;;;5101290;28;20028;-50
2021/11/21 11:02:51;;;;;;;23.02;12.93;;;10.10;99.90;;;;;;5083677;28;20596;-51
2021/11/21 11:05:24;;;;;;;22.40;13.07;;;10.10;99.90;;;;;;5087383;28;20081;-50
2021/11/21 11:07:54;;;;;;;21.70;12.63;;;10.20;99.90;;;;;;5104799;28;20031;-50
2021/11/21 11:10:38;;;;;;;22.58;12.80;;;10.40;99.90;;;;;;5108591;28;20020;-49
2021/11/21 11:13:06;;;;;;;17.65;11.40;;;10.50;99.90;;;;;;5101588;28;20020;-48
2021/11/21 11:15:35;;;;;;;18.23;11.48;;;10.60;99.90;;;;;;5100417;28;20058;-51
2021/11/21 11:18:01;;;;;;;22.88;10.93;;;10.90;99.90;;;;;;5109096;28;20104;-51
2021/11/21 11:20:27;;;;;;;18.65;10.40;;;10.90;99.90;;;;;;5108186;28;20032;-50
2021/11/21 11:22:55;;;;;;;16.70;10.48;;;10.90;99.90;;;;;;5108896;28;20425;-49
2021/11/21 11:25:28;;;;;;;18.00;10.27;;;10.90;99.90;;;;;;5108746;28;20024;-51
2021/11/21 11:28:16;;;;;;;16.85;9.43;;;11.00;99.90;;;;;;5108691;28;20067;-49
2021/11/21 11:30:41;;;;;;;15.75;9.35;;;11.00;99.90;;;;;;5108379;28;20388;-49
2021/11/21 11:33:14;;;;;;;15.43;9.40;;;11.10;99.90;;;;;;5108315;28;20020;-50
2021/11/21 11:35:44;;;;;;;17.75;9.68;;;11.10;99.90;;;;;;5108723;28;20024;-48
2021/11/21 11:38:12;;;;;;;15.32;8.18;;;11.10;99.90;;;;;;5107403;28;20028;-48
2021/11/21 11:40:52;;;;;;;15.15;8.68;;;11.10;99.90;;;;;;5108310;28;20135;-49
2021/11/21 11:43:19;;;;;;;18.90;7.57;;;10.80;99.90;;;;;;5102498;28;20027;-49
2021/11/21 11:45:49;;;;;;;17.08;7.90;;;10.90;99.90;;;;;;5098940;28;20054;-48
2021/11/21 11:48:34;;;;;;;13.35;7.38;;;10.80;99.90;;;;;;5108364;28;20561;-48
2021/11/21 11:51:04;;;;;;;11.93;7.18;;;10.70;99.90;;;;;;5108719;28;20027;-49
2021/11/21 11:53:35;;;;;;;15.15;6.88;;;10.60;99.90;;;;;;5107396;28;20421;-50
2021/11/21 11:56:10;;;;;;;17.00;7.60;;;10.50;99.90;;;;;;5102825;28;20502;-49
2021/11/21 11:58:56;;;;;;;12.80;6.90;;;10.50;99.90;;;;;;5095102;28;20024;-48
2021/11/21 12:01:40;;;;;;;11.95;7.07;;;10.40;99.90;;;;;;5087633;28;20490;-49
2021/11/21 12:04:29;;;;;;;14.85;7.38;;;10.40;99.90;;;;;;5086101;28;20028;-48
2021/11/21 12:07:21;;;;;;;13.45;6.15;;;10.30;99.90;;;;;;5086795;28;20032;-48
2021/11/21 12:10:09;;;;;;;14.18;6.75;;;10.30;99.90;;;;;;5088538;28;20051;-49
2021/11/21 12:13:02;;;;;;;13.30;7.45;;;10.20;99.90;;;;;;5088390;28;20089;-49
2021/11/21 12:15:35;;;;;;;13.80;7.50;;;10.20;99.90;;;;;;5095798;28;20370;-48
2021/11/21 12:18:05;;;;;;;15.02;6.93;;;10.30;99.90;;;;;;5112337;28;20043;-48
2021/11/21 12:20:46;;;;;;;15.23;7.53;;;10.30;99.90;;;;;;5110169;28;20035;-49
2021/11/21 12:23:14;;;;;;;11.65;6.22;;;10.30;99.90;;;;;;5112250;28;20104;-49
2021/11/21 12:25:42;;;;;;;14.05;7.40;;;10.30;99.90;;;;;;5112048;28;20023;-48
2021/11/21 12:28:08;;;;;;;14.35;6.45;;;10.30;99.90;;;;;;5110322;28;20539;-48
2021/11/21 12:30:37;;;;;;;9.45;5.90;;;10.40;99.90;;;;;;5111198;28;20031;-48
2021/11/21 12:33:06;;;;;;;12.32;5.63;;;10.40;99.90;;;;;;5112052;28;20016;-49
2021/11/21 12:35:38;;;;;;;13.32;6.53;;;10.40;99.90;;;;;;5111239;28;20016;-48
2021/11/21 12:38:19;;;;;;;13.70;6.78;;;10.30;99.90;;;;;;5108333;28;20528;-49